Time;durP1;ratioP1;P1;durP2;ratioP2;P2;SDS_P1;SDS_P2;PMS_P1;PMS_P2;Temp;Humidity;BMP_temperature;BMP_pressure;BME280_temperature;BME280_humidity;BME280_pressure;Samples;Min_cycle;Max_cycle;Signal;HPM_P1;HPM_P2
2022/06/24 00:02:04;;;;;;;12.70;5.55;;;;;;;22.15;84.68;99976.19;5006577;28;20104;-70
2022/06/24 00:04:30;;;;;;;8.82;5.18;;;;;;;22.15;83.43;99977.00;4997562;28;20098;-69
2022/06/24 00:06:56;;;;;;;8.02;5.30;;;;;;;22.11;85.06;100005.44;5008208;27;20555;-70
2022/06/24 00:09:22;;;;;;;10.95;5.85;;;;;;;22.02;85.32;100031.09;4983788;27;20204;-70
2022/06/24 00:12:01;;;;;;;10.90;5.57;;;;;;;21.88;88.50;100073.56;5047731;27;20080;-69
2022/06/24 00:14:26;;;;;;;14.98;6.80;;;;;;;21.69;90.68;100115.88;5017421;27;20027;-69
2022/06/24 00:16:53;;;;;;;14.32;5.88;;;;;;;21.51;90.55;100101.34;5051476;27;20020;-70
2022/06/24 00:19:18;;;;;;;13.07;6.90;;;;;;;21.35;92.85;100077.69;5032057;27;20887;-70
2022/06/24 00:21:44;;;;;;;14.52;7.05;;;;;;;21.14;93.65;100077.13;5027241;27;20161;-70
2022/06/24 00:24:21;;;;;;;9.52;6.03;;;;;;;21.22;90.77;100059.84;5033718;27;20028;-69
2022/06/24 00:26:46;;;;;;;12.75;6.60;;;;;;;21.25;91.77;100049.47;5050765;27;20445;-70
2022/06/24 00:29:18;;;;;;;10.13;6.30;;;;;;;21.22;93.43;100049.91;5050351;27;20093;-69
2022/06/24 00:32:21;;;;;;;12.60;6.10;;;;;;;21.27;91.44;100044.66;5051416;27;20035;-68
2022/06/24 00:34:47;;;;;;;14.10;5.82;;;;;;;21.25;90.97;100054.00;5035076;27;20013;-70
2022/06/24 00:37:25;;;;;;;12.55;5.05;;;;;;;21.18;90.87;100043.34;5016132;27;20082;-70
2022/06/24 00:39:52;;;;;;;9.65;4.60;;;;;;;21.01;90.99;100050.34;5010188;27;20017;-70
2022/06/24 00:42:18;;;;;;;7.47;4.10;;;;;;;20.98;90.99;100048.09;5028469;27;20423;-70
2022/06/24 00:44:48;;;;;;;10.63;4.25;;;;;;;20.97;92.48;100062.59;4999676;27;20921;-70
2022/06/24 00:47:14;;;;;;;5.57;3.78;;;;;;;20.96;92.42;100055.56;4997698;27;20819;-70
2022/06/24 00:49:39;;;;;;;7.40;3.90;;;;;;;20.91;93.23;100048.16;4980607;27;20005;-70
2022/06/24 00:52:07;;;;;;;7.80;3.70;;;;;;;20.89;93.75;100053.75;5014455;27;20029;-70
2022/06/24 00:54:33;;;;;;;5.63;3.35;;;;;;;20.72;91.48;100060.75;4996217;27;20005;-70
2022/06/24 00:56:58;;;;;;;7.70;3.20;;;;;;;20.72;90.66;100050.00;5031550;27;20001;-70
2022/06/24 00:59:23;;;;;;;7.03;3.22;;;;;;;20.80;91.18;100052.41;4995867;27;20010;-70
2022/06/24 01:01:49;;;;;;;10.98;3.35;;;;;;;20.79;91.69;100044.56;4994772;27;19997;-71
2022/06/24 01:04:14;;;;;;;7.88;3.00;;;;;;;20.67;90.96;100053.38;4980174;27;20561;-70
2022/06/24 01:06:42;;;;;;;12.43;3.40;;;;;;;20.70;92.40;100057.44;5013701;27;20571;-70
2022/06/24 01:09:08;;;;;;;6.05;3.00;;;;;;;20.64;93.41;100053.75;4992276;27;20372;-68
2022/06/24 01:11:38;;;;;;;6.95;2.95;;;;;;;20.69;94.17;100050.44;4992024;27;20145;-71
2022/06/24 01:14:03;;;;;;;7.20;3.20;;;;;;;20.66;93.64;100050.84;4975791;28;20129;-71
2022/06/24 01:16:29;;;;;;;6.15;2.90;;;;;;;20.66;94.20;100042.78;5000542;28;20006;-70
2022/06/24 01:18:56;;;;;;;6.00;2.90;;;;;;;20.67;94.61;100041.75;4983684;27;20033;-68
2022/06/24 01:21:38;;;;;;;5.15;3.00;;;;;;;20.58;94.13;100036.63;5031140;27;20020;-70
2022/06/24 01:24:17;;;;;;;5.43;2.90;;;;;;;20.54;94.96;100032.75;5034221;27;20136;-69
2022/06/24 01:26:47;;;;;;;4.63;3.05;;;;;;;20.43;94.39;100028.09;5020905;27;20056;-69
2022/06/24 01:29:12;;;;;;;5.80;3.30;;;;;;;20.50;94.37;100025.34;5014616;27;20016;-69
2022/06/24 01:31:40;;;;;;;6.38;3.00;;;;;;;20.48;94.97;100027.44;5019205;27;20860;-70
2022/06/24 01:34:06;;;;;;;6.28;2.78;;;;;;;20.50;95.12;100034.22;4986060;28;20016;-69
2022/06/24 01:36:31;;;;;;;6.05;2.92;;;;;;;20.46;95.53;100033.03;5013816;27;20010;-69
2022/06/24 01:38:56;;;;;;;3.90;2.45;;;;;;;20.41;96.08;100039.06;5006273;28;20041;-69
2022/06/24 01:41:22;;;;;;;5.93;2.90;;;;;;;20.35;96.01;100041.81;4999561;28;20481;-70
2022/06/24 01:43:47;;;;;;;4.18;2.65;;;;;;;20.32;95.96;100055.66;4989111;28;20013;-70
2022/06/24 01:46:13;;;;;;;3.92;2.63;;;;;;;20.34;96.27;100056.28;4988507;28;20034;-70
2022/06/24 01:48:38;;;;;;;4.38;2.70;;;;;;;20.33;96.66;100051.94;4999519;27;20033;-69
2022/06/24 01:51:04;;;;;;;8.00;3.15;;;;;;;20.40;96.15;100053.56;5008127;27;20109;-69
2022/06/24 01:53:30;;;;;;;9.95;3.08;;;;;;;20.45;95.08;100077.06;4993622;28;20031;-70
2022/06/24 01:55:55;;;;;;;6.63;3.03;;;;;;;20.43;95.75;100079.16;4990296;28;20055;-69
2022/06/24 01:58:21;;;;;;;5.22;2.65;;;;;;;20.41;96.41;100071.31;5007757;28;20029;-70
2022/06/24 02:00:46;;;;;;;7.20;3.08;;;;;;;20.46;96.66;100040.25;5010759;27;20017;-70
2022/06/24 02:03:11;;;;;;;8.18;2.90;;;;;;;20.51;94.17;100041.25;5009653;28;20022;-69
2022/06/24 02:05:37;;;;;;;5.70;2.70;;;;;;;20.51;93.91;100019.75;5006958;28;20137;-69
2022/06/24 02:08:03;;;;;;;6.53;2.72;;;;;;;20.55;93.10;100029.03;4992583;28;20025;-70
2022/06/24 02:13:27;;;;;;;;;;;;;;;20.49;94.74;100005.72;4996183;28;20106;-70
2022/06/24 02:16:01;;;;;;;7.43;2.97;;;;;;;20.50;95.23;100026.16;5003559;28;20751;-70
2022/06/24 02:18:26;;;;;;;;;;;;;;;20.47;93.64;100037.34;4990841;28;20775;-69
2022/06/24 02:20:51;;;;;;;4.00;2.73;;;;;;;20.53;93.90;100031.13;5006538;28;19919;-70
2022/06/24 02:23:18;;;;;;;5.38;2.97;;;;;;;20.46;95.14;100029.50;4994309;28;20471;-69
2022/06/24 02:25:44;;;;;;;3.92;2.88;;;;;;;20.50;95.70;100041.47;4988179;28;20202;-71
2022/06/24 02:28:09;;;;;;;6.65;3.20;;;;;;;20.47;96.26;100045.41;5007863;28;20037;-68
2022/06/24 02:30:35;;;;;;;5.90;2.97;;;;;;;20.43;96.12;100052.28;4990587;28;20929;-68
2022/06/24 02:33:00;;;;;;;7.00;2.88;;;;;;;20.49;96.09;100053.25;4990310;28;20324;-69
2022/06/24 02:35:26;;;;;;;6.95;3.30;;;;;;;20.46;96.06;100035.72;4992252;27;20271;-70
2022/06/24 02:37:51;;;;;;;5.50;3.03;;;;;;;20.44;94.73;100024.38;4992379;28;20021;-69
2022/06/24 02:43:01;;;;;;;6.75;3.13;;;;;;;20.50;93.38;99993.91;5015388;27;20246;-70
2022/06/24 02:45:26;;;;;;;3.28;2.70;;;;;;;20.48;94.27;99989.81;4984276;27;23136;-69
2022/06/24 02:47:51;;;;;;;6.07;3.25;;;;;;;20.47;95.09;99988.97;5009078;28;20787;-69
2022/06/24 02:50:17;;;;;;;5.03;3.15;;;;;;;20.40;93.99;99994.44;4995455;27;20014;-70
2022/06/24 02:52:42;;;;;;;4.95;2.80;;;;;;;20.39;90.99;99994.63;4976319;28;20651;-70
2022/06/24 02:55:08;;;;;;;7.25;2.80;;;;;;;20.38;90.72;99998.38;4992963;27;20785;-70
2022/06/24 02:57:34;;;;;;;4.40;2.70;;;;;;;20.29;91.80;99994.31;4995007;28;20032;-70
2022/06/24 02:59:59;;;;;;;2.75;2.55;;;;;;;20.28;91.82;100006.94;4997016;28;20037;-69
2022/06/24 03:02:24;;;;;;;3.47;2.88;;;;;;;20.25;90.49;100016.25;5012876;28;20043;-69
2022/06/24 03:04:50;;;;;;;6.50;2.88;;;;;;;20.21;90.05;100009.66;5012471;28;20415;-70
2022/06/24 03:07:15;;;;;;;3.72;3.00;;;;;;;20.20;91.30;100009.88;5009970;28;20037;-70
2022/06/24 03:09:41;;;;;;;3.05;2.83;;;;;;;20.11;91.13;100008.50;4993038;28;20136;-70
2022/06/24 03:12:07;;;;;;;3.92;3.20;;;;;;;20.16;91.24;100008.66;5001525;27;20036;-69
2022/06/24 03:14:32;;;;;;;3.75;3.33;;;;;;;20.19;92.52;100002.84;5017560;28;20101;-69
2022/06/24 03:16:57;;;;;;;3.47;3.00;;;;;;;20.20;92.86;99999.13;5014440;28;21066;-70
2022/06/24 03:19:23;;;;;;;5.13;3.17;;;;;;;20.24;93.14;99998.47;5013808;28;20058;-69
2022/06/24 03:21:48;;;;;;;5.68;3.40;;;;;;;20.22;93.79;99997.03;4995660;28;20013;-70
2022/06/24 03:24:14;;;;;;;3.50;3.25;;;;;;;20.08;93.89;100007.91;5013891;27;20029;-69
2022/06/24 03:26:40;;;;;;;5.53;3.38;;;;;;;20.03;94.25;100010.41;5014025;28;20098;-69
2022/06/24 03:29:05;;;;;;;3.58;3.28;;;;;;;20.08;94.55;100020.53;4993240;28;20400;-70
2022/06/24 03:31:30;;;;;;;3.80;3.50;;;;;;;19.97;95.31;100016.66;4997550;28;20016;-71
2022/06/24 03:33:57;;;;;;;5.03;4.07;;;;;;;19.93;96.24;100014.63;5011416;28;20487;-71
2022/06/24 03:36:23;;;;;;;6.30;3.88;;;;;;;19.95;96.37;100009.84;5015029;28;20034;-69
2022/06/24 03:38:48;;;;;;;5.07;3.85;;;;;;;19.95;96.57;100017.91;4995969;27;20591;-69
2022/06/24 03:41:13;;;;;;;4.15;3.75;;;;;;;20.08;95.90;100009.78;5011301;28;20488;-69
2022/06/24 03:43:39;;;;;;;6.30;3.90;;;;;;;19.97;96.26;100005.09;5000366;28;20017;-70
2022/06/24 03:46:04;;;;;;;3.95;3.55;;;;;;;19.87;96.24;100009.06;4990471;28;20290;-70
2022/06/24 03:48:30;;;;;;;4.60;4.20;;;;;;;19.92;97.34;100007.59;4992857;28;20030;-69
2022/06/24 03:50:56;;;;;;;4.40;4.10;;;;;;;19.99;97.24;100013.75;5023795;28;20009;-70
2022/06/24 03:53:21;;;;;;;5.18;4.20;;;;;;;19.92;96.98;100002.22;5029349;28;20021;-70
2022/06/24 03:55:50;;;;;;;5.45;4.25;;;;;;;19.93;97.52;100011.94;4993176;28;20710;-69
2022/06/24 03:58:18;;;;;;;5.78;4.20;;;;;;;19.91;97.90;100009.44;4996690;28;20052;-69
2022/06/24 04:00:44;;;;;;;5.40;3.97;;;;;;;19.92;97.86;100004.91;4978390;28;20074;-71
2022/06/24 04:03:09;;;;;;;4.57;4.18;;;;;;;19.96;97.94;100006.94;4996519;28;20018;-69
2022/06/24 04:05:35;;;;;;;4.13;3.80;;;;;;;19.94;98.47;100006.34;5010848;28;20017;-70
2022/06/24 04:08:00;;;;;;;8.30;3.75;;;;;;;19.93;97.91;99998.53;5002005;28;20029;-71
2022/06/24 04:10:26;;;;;;;5.50;4.10;;;;;;;19.96;98.22;99995.38;5014417;27;20404;-71
2022/06/24 04:12:52;;;;;;;4.55;3.75;;;;;;;20.00;98.64;99988.56;5015103;27;20044;-71
2022/06/24 04:15:17;;;;;;;5.45;3.70;;;;;;;20.08;97.93;99985.59;5014155;27;20020;-70
2022/06/24 04:17:43;;;;;;;4.03;3.70;;;;;;;20.10;97.87;99983.50;5016591;27;20124;-70
2022/06/24 04:20:09;;;;;;;6.68;3.78;;;;;;;20.12;98.66;99973.34;5024500;27;20297;-69
2022/06/24 04:22:34;;;;;;;5.35;3.38;;;;;;;20.10;97.56;99977.31;5014448;27;20330;-70
2022/06/24 04:25:00;;;;;;;3.55;3.35;;;;;;;20.13;97.56;99969.63;5015060;27;20020;-70
2022/06/24 04:27:25;;;;;;;4.28;3.72;;;;;;;20.15;97.33;99966.72;5033325;27;20041;-70
2022/06/24 04:29:51;;;;;;;4.10;3.80;;;;;;;20.12;97.59;99965.28;5017030;27;20164;-69
2022/06/24 04:32:16;;;;;;;4.60;3.58;;;;;;;20.16;97.57;99968.38;5016616;27;20261;-70
2022/06/24 04:34:42;;;;;;;4.13;3.55;;;;;;;20.16;97.39;99971.88;4993741;27;20500;-71
2022/06/24 04:37:07;;;;;;;4.15;3.50;;;;;;;20.17;96.80;99976.22;4975068;27;20086;-70
2022/06/24 04:39:33;;;;;;;4.72;3.60;;;;;;;20.20;97.00;99972.28;5000424;27;20102;-70
2022/06/24 04:41:58;;;;;;;4.43;3.47;;;;;;;20.21;98.04;99974.75;5001014;27;20028;-70
2022/06/24 04:44:23;;;;;;;4.45;3.85;;;;;;;20.16;98.32;99977.25;5025869;27;20310;-69
2022/06/24 04:46:49;;;;;;;3.88;3.50;;;;;;;20.18;98.20;99979.72;5001092;27;20037;-70
2022/06/24 04:49:14;;;;;;;6.97;4.00;;;;;;;20.16;98.38;99988.00;4982478;27;21598;-70
2022/06/24 04:51:40;;;;;;;4.03;3.72;;;;;;;20.20;98.73;99989.19;5001639;27;20037;-70
2022/06/24 04:54:05;;;;;;;6.65;3.97;;;;;;;20.22;98.77;99989.81;4993911;27;20574;-70
2022/06/24 04:56:31;;;;;;;4.15;3.45;;;;;;;20.10;97.65;99988.88;5000811;27;20074;-70
2022/06/24 04:58:56;;;;;;;6.03;3.20;;;;;;;20.08;96.51;100001.72;4977882;27;20238;-72
2022/06/24 05:01:22;;;;;;;5.68;2.67;;;;;;;19.96;94.43;100009.63;4990568;27;20035;-69
2022/06/24 05:03:47;;;;;;;3.67;2.88;;;;;;;19.93;96.13;100010.06;5037124;27;20016;-70
2022/06/24 05:06:13;;;;;;;5.18;2.88;;;;;;;19.87;95.12;100008.25;4994664;27;20041;-69
2022/06/24 05:08:38;;;;;;;8.23;2.83;;;;;;;19.86;95.72;100010.09;5015656;27;20021;-70
2022/06/24 05:11:05;;;;;;;4.82;2.60;;;;;;;19.81;95.54;100012.63;4976820;27;20372;-70
2022/06/24 05:13:30;;;;;;;4.00;2.90;;;;;;;19.86;96.12;100010.09;4978709;27;20676;-70
2022/06/24 05:15:58;;;;;;;5.10;3.05;;;;;;;19.85;96.24;100016.50;5016562;27;20009;-71
2022/06/24 05:18:23;;;;;;;7.00;2.85;;;;;;;19.79;94.68;100014.69;5012372;27;20267;-70
2022/06/24 05:20:48;;;;;;;4.72;2.75;;;;;;;19.71;96.24;100014.91;4984084;27;20056;-70
2022/06/24 05:23:14;;;;;;;5.93;2.80;;;;;;;19.68;96.41;100008.09;5038189;27;20471;-70
2022/06/24 05:25:39;;;;;;;4.15;2.55;;;;;;;19.79;97.00;100009.31;5004804;27;20013;-70
2022/06/24 05:28:05;;;;;;;6.65;2.40;;;;;;;19.74;95.27;100011.78;5033997;27;20130;-69
2022/06/24 05:30:30;;;;;;;4.63;2.50;;;;;;;19.80;95.31;100019.03;4997908;28;20021;-70
2022/06/24 05:32:56;;;;;;;3.97;2.70;;;;;;;19.85;94.72;100013.81;4994356;28;20040;-71
2022/06/24 05:35:21;;;;;;;2.75;2.13;;;;;;;19.84;94.66;100014.03;4964020;27;20010;-70
2022/06/24 05:37:47;;;;;;;5.07;2.50;;;;;;;19.81;93.83;100015.31;5006341;28;20026;-72
2022/06/24 05:40:12;;;;;;;6.65;2.38;;;;;;;19.77;93.11;100006.03;5029980;27;20605;-71
2022/06/24 05:42:37;;;;;;;4.75;2.28;;;;;;;19.68;92.85;100013.47;4989569;28;20946;-69
2022/06/24 05:45:03;;;;;;;4.97;2.08;;;;;;;19.59;93.57;100020.16;4997316;27;20016;-71
2022/06/24 05:47:28;;;;;;;3.53;2.47;;;;;;;19.55;94.17;100016.25;4998883;27;20257;-71
2022/06/24 05:49:54;;;;;;;6.57;2.50;;;;;;;19.51;94.97;100018.50;5011143;27;20028;-70
2022/06/24 05:55:02;;;;;;;5.78;2.42;;;;;;;19.58;94.61;100018.50;5022859;27;20828;-69
2022/06/24 05:55:05;;;;;;;3.67;2.20;;;;;;;19.56;93.86;100016.03;5001336;27;20040;-71
2022/06/24 05:57:30;;;;;;;7.15;2.38;;;;;;;19.59;94.07;100016.63;5013059;27;20279;-70
2022/06/24 05:59:56;;;;;;;6.70;2.60;;;;;;;19.69;94.46;100008.94;5014790;27;20029;-70
2022/06/24 06:02:22;;;;;;;6.00;2.63;;;;;;;19.62;94.30;99997.44;5016559;27;20961;-70
2022/06/24 06:04:48;;;;;;;7.13;2.33;;;;;;;19.54;94.51;99983.22;5021571;27;20019;-69
2022/06/24 06:07:13;;;;;;;4.53;2.45;;;;;;;19.63;94.42;99977.56;4988365;27;20033;-71
2022/06/24 06:09:39;;;;;;;5.10;2.20;;;;;;;19.73;94.21;99972.59;5008583;27;20142;-69
2022/06/24 06:12:05;;;;;;;3.90;2.13;;;;;;;19.80;94.21;99973.41;5017763;27;20033;-72
2022/06/24 06:14:30;;;;;;;4.50;1.95;;;;;;;19.72;90.91;99970.94;5011819;27;20230;-73
2022/06/24 06:16:55;;;;;;;4.80;1.98;;;;;;;19.82;92.04;99975.84;4990379;27;20123;-69
2022/06/24 06:19:21;;;;;;;2.78;1.88;;;;;;;19.84;91.11;99969.25;4992108;27;20274;-70
2022/06/24 06:21:46;;;;;;;2.83;2.13;;;;;;;19.94;92.24;99962.53;4996764;27;20750;-71
2022/06/24 06:24:12;;;;;;;7.63;1.88;;;;;;;19.96;91.87;99963.16;5006642;27;20005;-70
2022/06/24 06:26:37;;;;;;;3.67;1.92;;;;;;;19.97;91.73;99959.44;4990739;27;21076;-69
2022/06/24 06:29:04;;;;;;;7.18;2.00;;;;;;;19.97;91.27;99962.13;4993313;27;20030;-70
2022/06/24 06:31:29;;;;;;;2.50;2.10;;;;;;;19.87;90.52;99957.25;4995840;27;20802;-70
2022/06/24 06:33:55;;;;;;;3.28;1.98;;;;;;;19.80;91.35;99962.66;4970216;27;20120;-70
2022/06/24 06:36:21;;;;;;;3.78;1.95;;;;;;;19.87;91.54;99968.81;5001693;27;20008;-71
2022/06/24 06:38:46;;;;;;;2.65;1.75;;;;;;;19.81;90.13;99958.94;5015571;27;20021;-71
2022/06/24 06:41:12;;;;;;;3.70;1.80;;;;;;;19.80;91.04;99956.44;4995558;27;20022;-70
2022/06/24 06:43:38;;;;;;;8.20;2.03;;;;;;;19.74;90.50;99955.41;4987804;27;20815;-71
2022/06/24 06:46:12;;;;;;;2.92;1.92;;;;;;;19.87;91.80;99968.00;4982596;27;20202;-72
2022/06/24 06:48:38;;;;;;;3.05;1.80;;;;;;;19.80;92.01;99973.41;4982448;27;20432;-70
2022/06/24 06:51:03;;;;;;;2.85;1.77;;;;;;;19.81;91.96;99968.84;4989700;27;20613;-73
2022/06/24 06:53:29;;;;;;;7.00;2.20;;;;;;;19.78;92.73;99972.75;5002749;27;20856;-71
2022/06/24 06:55:55;;;;;;;4.50;1.67;;;;;;;19.70;92.68;99978.41;5003089;27;20587;-72
2022/06/24 06:58:21;;;;;;;2.65;2.00;;;;;;;19.74;92.03;99974.22;4981829;27;20021;-71
2022/06/24 07:00:47;;;;;;;5.28;2.00;;;;;;;19.64;92.44;99980.06;5007766;27;20125;-72
2022/06/24 07:03:12;;;;;;;2.92;2.05;;;;;;;19.67;93.15;99979.63;4998530;27;20563;-72
2022/06/24 07:05:38;;;;;;;3.20;2.15;;;;;;;19.83;93.62;99983.69;4993147;27;20077;-72
2022/06/24 07:08:05;;;;;;;5.28;2.10;;;;;;;20.03;92.99;99980.06;5011871;27;20078;-72
2022/06/24 07:10:30;;;;;;;3.15;2.08;;;;;;;20.04;90.33;99979.81;4969878;28;20896;-72
2022/06/24 07:12:56;;;;;;;2.95;2.13;;;;;;;20.20;89.19;99972.28;5005356;28;20106;-71
2022/06/24 07:15:21;;;;;;;3.33;1.80;;;;;;;20.39;88.54;99970.44;4978154;28;20021;-73
2022/06/24 07:17:47;;;;;;;5.85;2.22;;;;;;;20.52;89.11;99975.72;4974874;28;20033;-72
2022/06/24 07:20:12;;;;;;;4.03;2.00;;;;;;;20.52;89.59;99964.97;5009876;28;20009;-70
2022/06/24 07:22:39;;;;;;;5.95;2.10;;;;;;;20.53;88.04;99969.31;4991289;28;20844;-72
2022/06/24 07:25:05;;;;;;;5.20;1.95;;;;;;;20.53;88.55;99968.47;4992887;27;20124;-72
2022/06/24 07:27:30;;;;;;;5.93;2.08;;;;;;;20.50;88.85;99967.03;4989169;27;20035;-72
2022/06/24 07:29:56;;;;;;;3.40;1.92;;;;;;;20.66;88.59;99972.88;5003765;28;20005;-70
2022/06/24 07:32:21;;;;;;;3.08;1.90;;;;;;;20.71;88.07;99965.81;5031900;27;20412;-71
2022/06/24 07:34:47;;;;;;;3.75;2.42;;;;;;;20.65;87.01;99969.38;5021527;27;20626;-71
2022/06/24 07:37:12;;;;;;;3.47;2.33;;;;;;;20.82;86.85;99969.63;4965805;27;20409;-72
2022/06/24 07:39:38;;;;;;;3.75;2.05;;;;;;;20.90;87.69;99961.28;5002026;28;20021;-72
2022/06/24 07:42:05;;;;;;;4.25;2.22;;;;;;;20.86;86.25;99965.47;4995206;27;20013;-70
2022/06/24 07:44:30;;;;;;;3.90;2.45;;;;;;;20.78;84.31;99956.88;5005869;27;20069;-71
2022/06/24 07:46:57;;;;;;;3.05;1.90;;;;;;;20.79;87.24;99964.72;5011318;28;20029;-71
2022/06/24 07:49:22;;;;;;;3.58;2.13;;;;;;;20.66;87.20;99954.06;4998921;28;20017;-73
2022/06/24 07:51:47;;;;;;;4.13;2.30;;;;;;;20.60;88.48;99958.47;4994101;27;20127;-69
2022/06/24 07:54:13;;;;;;;5.13;2.22;;;;;;;20.45;88.41;99963.34;5001826;27;20905;-70
2022/06/24 07:56:57;;;;;;;7.10;2.78;;;;;;;20.36;89.44;99992.38;5011163;27;20665;-73
2022/06/24 07:59:31;;;;;;;1.58;1.40;;;;;;;20.10;87.89;99988.88;4998887;27;20186;-70
2022/06/24 08:01:57;;;;;;;6.28;2.10;;;;;;;19.76;89.49;99999.00;4997755;27;20207;-72
2022/06/24 08:04:23;;;;;;;3.42;1.70;;;;;;;19.67;91.68;100005.63;5006259;27;20019;-71
2022/06/24 08:06:50;;;;;;;2.10;1.90;;;;;;;19.54;92.48;99999.34;5011081;27;20040;-70
2022/06/24 08:09:23;;;;;;;1.98;1.52;;;;;;;19.37;94.25;100003.53;5011685;27;20829;-71
2022/06/24 08:11:48;;;;;;;1.70;1.50;;;;;;;19.25;95.93;100003.38;5001436;28;20165;-71
2022/06/24 08:14:14;;;;;;;2.83;2.00;;;;;;;19.27;97.38;100016.56;4992721;27;20037;-70
2022/06/24 08:16:41;;;;;;;2.65;1.90;;;;;;;19.31;97.59;100013.25;4984182;27;20457;-72
2022/06/24 08:19:06;;;;;;;2.75;1.70;;;;;;;19.22;97.08;100009.97;4995413;27;20255;-72
2022/06/24 08:21:32;;;;;;;1.88;1.45;;;;;;;18.90;92.22;100014.41;5003051;27;20397;-72
2022/06/24 08:23:57;;;;;;;1.42;1.40;;;;;;;19.03;95.49;100010.88;5016824;27;20017;-71
2022/06/24 08:26:23;;;;;;;2.30;1.92;;;;;;;19.00;95.74;100012.09;5004241;27;20924;-70
2022/06/24 08:28:48;;;;;;;1.77;1.65;;;;;;;19.02;96.68;100014.56;5023299;27;20764;-71
2022/06/24 08:31:13;;;;;;;2.38;2.17;;;;;;;19.05;97.68;100019.53;5041872;27;20022;-72
2022/06/24 08:33:39;;;;;;;4.90;2.30;;;;;;;19.04;96.95;100017.88;5053607;27;20124;-70
2022/06/24 08:36:05;;;;;;;2.55;2.10;;;;;;;19.17;97.88;100012.47;5005695;27;20025;-71
2022/06/24 08:38:30;;;;;;;2.47;2.28;;;;;;;19.16;98.22;100024.25;5038468;27;20033;-70
2022/06/24 08:40:55;;;;;;;2.33;2.20;;;;;;;19.25;96.71;100029.34;5032760;27;20120;-70
2022/06/24 08:43:21;;;;;;;2.42;2.33;;;;;;;19.39;97.90;100029.09;5044458;27;20930;-71
2022/06/24 08:45:47;;;;;;;2.92;2.33;;;;;;;19.49;97.35;100025.16;5019697;27;20009;-72
2022/06/24 08:48:13;;;;;;;2.33;2.17;;;;;;;19.58;95.94;100031.09;5020184;27;20036;-71
2022/06/24 08:50:38;;;;;;;2.60;2.40;;;;;;;19.60;93.36;100037.06;5020501;28;20328;-69
2022/06/24 08:53:08;;;;;;;3.40;2.53;;;;;;;19.58;94.06;100031.91;5004033;28;20907;-70
2022/06/24 08:55:35;;;;;;;2.30;2.20;;;;;;;19.64;94.29;100030.22;5002216;28;20009;-71
2022/06/24 08:58:09;;;;;;;2.75;2.60;;;;;;;19.81;95.24;100033.28;5002797;28;20449;-71
2022/06/24 09:00:35;;;;;;;4.22;2.75;;;;;;;19.74;93.16;100035.94;5011971;28;20021;-70
2022/06/24 09:03:01;;;;;;;3.20;2.90;;;;;;;19.68;92.78;100039.50;5010233;27;21002;-69
2022/06/24 09:05:27;;;;;;;3.65;3.30;;;;;;;19.62;92.38;100032.31;5021428;27;20670;-70
2022/06/24 09:08:06;;;;;;;3.17;3.00;;;;;;;19.74;93.03;100044.00;4993611;27;20244;-70
2022/06/24 09:10:32;;;;;;;4.00;3.70;;;;;;;19.63;91.89;100044.69;5009376;28;20028;-71
2022/06/24 09:12:58;;;;;;;6.35;3.85;;;;;;;19.80;93.57;100043.19;5007647;27;20024;-70
2022/06/24 09:15:23;;;;;;;4.55;4.03;;;;;;;19.85;94.19;100048.72;4999922;27;20099;-72
2022/06/24 09:17:49;;;;;;;6.68;4.00;;;;;;;19.93;93.73;100057.59;5004653;27;20429;-71
2022/06/24 09:20:15;;;;;;;4.00;3.72;;;;;;;20.01;94.17;100050.09;5009707;27;20821;-70
2022/06/24 09:22:41;;;;;;;4.40;4.00;;;;;;;20.08;94.07;100039.31;5028800;27;20013;-69
2022/06/24 09:25:06;;;;;;;6.72;3.88;;;;;;;20.21;92.76;100028.47;5010489;27;20881;-70
2022/06/24 09:27:32;;;;;;;4.10;3.80;;;;;;;20.39;90.76;100037.63;5037191;27;20501;-73
2022/06/24 09:29:58;;;;;;;4.55;3.30;;;;;;;20.46;90.76;100024.13;5036506;27;20558;-72
2022/06/24 09:32:23;;;;;;;4.18;3.40;;;;;;;20.69;88.57;100024.38;5003292;27;20017;-71
2022/06/24 09:35:06;;;;;;;3.67;3.10;;;;;;;20.89;88.50;100018.78;5038049;27;20009;-72
2022/06/24 09:37:35;;;;;;;3.42;3.20;;;;;;;21.07;86.53;100017.19;5020022;27;20036;-70
2022/06/24 09:40:24;;;;;;;3.35;3.15;;;;;;;21.18;86.13;100019.13;5038712;27;20158;-71
2022/06/24 09:43:01;;;;;;;3.50;2.47;;;;;;;21.38;82.91;100028.81;5008240;27;20024;-70
2022/06/24 09:45:49;;;;;;;3.10;2.42;;;;;;;21.48;83.54;100028.28;5004809;27;20023;-71
2022/06/24 09:48:34;;;;;;;4.70;2.95;;;;;;;21.34;83.32;100035.72;5039105;27;20044;-70
2022/06/24 09:51:06;;;;;;;3.35;2.67;;;;;;;21.50;84.79;100023.50;5005330;27;20386;-71
2022/06/24 09:53:36;;;;;;;2.97;2.80;;;;;;;21.64;83.42;100019.59;5030997;27;20413;-71
2022/06/24 09:56:07;;;;;;;3.83;2.80;;;;;;;21.53;82.33;100026.59;5024289;27;20047;-71
2022/06/24 09:58:36;;;;;;;3.28;3.00;;;;;;;21.45;83.08;100026.88;5023658;27;20492;-70
2022/06/24 10:01:02;;;;;;;3.78;3.38;;;;;;;21.48;83.38;100031.00;5006208;27;20005;-70
2022/06/24 10:03:27;;;;;;;3.65;3.38;;;;;;;21.42;83.63;100016.56;5021915;27;20196;-72
2022/06/24 10:05:54;;;;;;;3.88;3.55;;;;;;;21.74;83.30;100019.91;4986483;27;20728;-71
2022/06/24 10:08:21;;;;;;;5.55;4.38;;;;;;;21.78;82.74;100014.84;5004196;27;20108;-72
2022/06/24 10:10:53;;;;;;;4.38;4.00;;;;;;;21.85;81.44;100020.97;5015862;28;20129;-70
2022/06/24 10:13:24;;;;;;;4.80;4.38;;;;;;;22.04;83.24;100021.75;5032654;28;20013;-73
2022/06/24 10:15:50;;;;;;;4.70;4.20;;;;;;;21.83;81.91;100023.09;5017143;28;20028;-70
2022/06/24 10:18:16;;;;;;;4.55;4.15;;;;;;;21.91;83.11;100027.31;4999297;28;20524;-72
2022/06/24 10:20:42;;;;;;;4.25;3.85;;;;;;;22.12;82.49;100039.44;4994468;28;20018;-71
2022/06/24 10:23:07;;;;;;;4.40;4.10;;;;;;;22.33;81.98;100037.25;4979552;28;20045;-70
2022/06/24 10:25:48;;;;;;;6.13;4.50;;;;;;;22.42;80.76;100031.34;4999957;28;20407;-71
2022/06/24 10:28:13;;;;;;;5.22;4.50;;;;;;;22.42;82.13;100035.88;4999155;28;20484;-71
2022/06/24 10:30:39;;;;;;;4.85;4.30;;;;;;;22.64;80.90;100036.97;4983272;28;20049;-71
2022/06/24 10:33:15;;;;;;;5.00;4.65;;;;;;;22.61;79.66;100040.13;5016964;27;20057;-70
2022/06/24 10:36:09;;;;;;;5.22;4.78;;;;;;;23.63;78.16;100043.41;4998630;28;20758;-71
2022/06/24 10:38:39;;;;;;;3.65;3.35;;;;;;;24.10;71.43;100050.50;4993410;28;20115;-70
2022/06/24 10:41:06;;;;;;;5.32;2.47;;;;;;;24.06;65.39;100053.94;5015560;28;20145;-71
2022/06/24 10:43:39;;;;;;;3.50;2.60;;;;;;;24.96;64.72;100057.56;5000035;28;20017;-72
2022/06/24 10:46:11;;;;;;;4.65;2.60;;;;;;;25.43;61.85;100058.19;4994747;28;20014;-71
2022/06/24 10:48:51;;;;;;;2.47;2.30;;;;;;;26.24;60.70;100060.13;5002428;28;20847;-72
2022/06/24 10:51:20;;;;;;;4.28;2.30;;;;;;;25.91;59.03;100051.13;5015466;28;20060;-70
2022/06/24 10:54:01;;;;;;;2.33;2.22;;;;;;;25.14;60.99;100058.31;4995019;28;20021;-70
2022/06/24 10:56:38;;;;;;;3.95;1.92;;;;;;;25.60;57.90;100050.78;4995774;28;20108;-70
2022/06/24 10:59:03;;;;;;;2.08;1.92;;;;;;;25.58;57.74;100035.84;4994082;28;20018;-72
2022/06/24 11:01:29;;;;;;;2.58;1.85;;;;;;;25.89;59.52;100037.03;4996388;28;20017;-69
2022/06/24 11:03:54;;;;;;;2.00;1.90;;;;;;;26.86;58.83;100045.16;4963095;28;20160;-72
2022/06/24 11:06:20;;;;;;;3.72;2.05;;;;;;;26.72;57.24;100041.25;4993964;28;20449;-71
2022/06/24 11:08:45;;;;;;;2.58;2.47;;;;;;;26.28;60.25;100036.03;4980701;28;20057;-71
2022/06/24 11:11:24;;;;;;;2.47;2.20;;;;;;;26.48;58.63;100033.47;5016454;27;20153;-71
2022/06/24 11:13:50;;;;;;;2.50;2.28;;;;;;;26.62;57.47;100033.03;5013255;28;20026;-70
2022/06/24 11:16:15;;;;;;;3.75;2.20;;;;;;;27.02;56.31;100026.25;5014284;28;20041;-71
2022/06/24 11:18:41;;;;;;;2.70;2.42;;;;;;;26.72;55.80;100023.09;4992508;28;20017;-71
2022/06/24 11:21:09;;;;;;;2.97;2.50;;;;;;;26.72;59.37;100023.09;5011712;28;20006;-71
2022/06/24 11:23:37;;;;;;;2.83;2.50;;;;;;;27.24;55.01;100015.19;4994514;28;20024;-74
2022/06/24 11:26:10;;;;;;;2.80;2.40;;;;;;;26.95;55.31;100020.19;4990500;28;20086;-73
2022/06/24 11:28:37;;;;;;;4.50;2.65;;;;;;;26.23;61.07;100017.81;4999801;28;20026;-70
2022/06/24 11:31:22;;;;;;;2.30;2.10;;;;;;;26.31;61.31;100017.31;4982680;27;20448;-71
2022/06/24 11:34:03;;;;;;;2.45;2.25;;;;;;;26.34;60.10;100024.13;5020885;27;20033;-72